TAF LDZA 260525Z 2606/2706 03006KT CAVOK
                 TX11/2613Z TN02/2704Z
           TEMPO 2606/2616 05012KT=
TAF LDZA 252325Z 2600/2700 VRB02KT 9999 SCT035
                 TX11/2613Z TN03/2605Z
           BECMG 2604/2606 03006KT
           TEMPO 2606/2616 05012KT=
TAF LDZA 251725Z 2518/2618 03020G30KT 9999 SCT035
                 TX11/2613Z TN03/2604Z
           TEMPO 2518/2523 SHRA SCT030TCU BKN035
    PROB40 TEMPO 2518/2521 3000 TSRA FEW025CB BKN030
           BECMG 2519/2521 03006KT
           TEMPO 2604/2618 05012KT=
TAF LDZA 251125Z 2512/2612 05010KT 9999 SCT035
                 TX16/2512Z TN03/2604Z
           TEMPO 2514/2522 SHRA SCT030TCU BKN035
           BECMG 2515/2517 03020G30KT
    PROB30 TEMPO 2515/2519 TSRA FEW025CB BKN030
           BECMG 2519/2521 05006KT
           TEMPO 2603/2612 05012KT=
TAF LDZA 250525Z 2506/2606 04008KT CAVOK
                 TX13/2509Z TN04/2604Z
           TEMPO 2514/2519 SHRA SCT060TCU
           BECMG 2515/2517 03020G30KT
    PROB30 TEMPO 2515/2519 35030G40KT TSRA FEW025CB BKN040
           BECMG 2519/2521 05004KT
           TEMPO 2602/2606 05010KT=
TAF LDZA 242325Z 2500/2600 VRB02KT CAVOK
                 TX17/2513Z TN04/2522Z
           BECMG 2507/2509 05008KT
    PROB30 TEMPO 2515/2519 35020G30KT TSRA FEW025CB BKN040
           BECMG 2519/2521 05004KT=